sensor_id;sensor_type;location;lat;lon;timestamp;P1;durP1;ratioP1;P2;durP2;ratioP2
69369;SDS011;56530;42.640;23.372;2023-06-24T00:01:43;11.93;;;10.23;;
69369;SDS011;56530;42.640;23.372;2023-06-24T00:04:08;11.57;;;10.47;;
69369;SDS011;56530;42.640;23.372;2023-06-24T00:06:34;11.83;;;10.10;;
69369;SDS011;56530;42.640;23.372;2023-06-24T00:08:59;11.77;;;10.57;;
69369;SDS011;56530;42.640;23.372;2023-06-24T00:11:30;11.55;;;10.45;;
69369;SDS011;56530;42.640;23.372;2023-06-24T00:13:56;13.05;;;10.57;;
69369;SDS011;56530;42.640;23.372;2023-06-24T00:16:21;12.27;;;11.10;;
69369;SDS011;56530;42.640;23.372;2023-06-24T00:18:52;12.25;;;11.05;;
69369;SDS011;56530;42.640;23.372;2023-06-24T00:21:18;13.48;;;10.43;;
69369;SDS011;56530;42.640;23.372;2023-06-24T00:23:44;12.32;;;11.05;;
69369;SDS011;56530;42.640;23.372;2023-06-24T00:26:10;11.50;;;10.30;;
69369;SDS011;56530;42.640;23.372;2023-06-24T00:28:35;12.48;;;11.38;;
69369;SDS011;56530;42.640;23.372;2023-06-24T00:31:01;13.70;;;12.32;;
69369;SDS011;56530;42.640;23.372;2023-06-24T00:33:27;12.40;;;10.55;;
69369;SDS011;56530;42.640;23.372;2023-06-24T00:35:53;12.53;;;11.30;;
69369;SDS011;56530;42.640;23.372;2023-06-24T00:38:19;12.35;;;11.15;;
69369;SDS011;56530;42.640;23.372;2023-06-24T00:40:45;12.57;;;11.33;;
69369;SDS011;56530;42.640;23.372;2023-06-24T00:43:11;11.75;;;10.65;;
69369;SDS011;56530;42.640;23.372;2023-06-24T00:45:36;12.02;;;10.73;;
69369;SDS011;56530;42.640;23.372;2023-06-24T00:48:02;12.27;;;11.07;;
69369;SDS011;56530;42.640;23.372;2023-06-24T00:50:28;12.53;;;11.33;;
69369;SDS011;56530;42.640;23.372;2023-06-24T00:52:54;12.27;;;11.10;;
69369;SDS011;56530;42.640;23.372;2023-06-24T00:55:19;12.57;;;11.35;;
69369;SDS011;56530;42.640;23.372;2023-06-24T00:57:49;13.30;;;11.17;;
69369;SDS011;56530;42.640;23.372;2023-06-24T01:00:17;13.13;;;11.82;;
69369;SDS011;56530;42.640;23.372;2023-06-24T01:02:47;11.82;;;10.60;;
69369;SDS011;56530;42.640;23.372;2023-06-24T01:05:13;12.30;;;11.20;;
69369;SDS011;56530;42.640;23.372;2023-06-24T01:07:39;13.23;;;11.93;;
69369;SDS011;56530;42.640;23.372;2023-06-24T01:10:05;13.73;;;11.45;;
69369;SDS011;56530;42.640;23.372;2023-06-24T01:12:35;12.00;;;10.90;;
69369;SDS011;56530;42.640;23.372;2023-06-24T01:15:03;13.50;;;12.25;;
69369;SDS011;56530;42.640;23.372;2023-06-24T01:17:44;13.00;;;11.77;;
69369;SDS011;56530;42.640;23.372;2023-06-24T01:20:20;13.30;;;12.00;;
69369;SDS011;56530;42.640;23.372;2023-06-24T01:22:55;12.85;;;11.65;;
69369;SDS011;56530;42.640;23.372;2023-06-24T01:36:31;13.90;;;12.37;;
69369;SDS011;56530;42.640;23.372;2023-06-24T01:39:01;13.70;;;12.05;;
69369;SDS011;56530;42.640;23.372;2023-06-24T01:41:30;12.48;;;11.23;;
69369;SDS011;56530;42.640;23.372;2023-06-24T01:43:58;12.80;;;11.45;;
69369;SDS011;56530;42.640;23.372;2023-06-24T01:46:25;13.00;;;11.65;;
69369;SDS011;56530;42.640;23.372;2023-06-24T01:48:52;12.65;;;11.45;;
69369;SDS011;56530;42.640;23.372;2023-06-24T01:51:20;12.97;;;11.73;;
69369;SDS011;56530;42.640;23.372;2023-06-24T01:53:48;13.88;;;12.35;;
69369;SDS011;56530;42.640;23.372;2023-06-24T01:56:16;13.32;;;12.02;;
69369;SDS011;56530;42.640;23.372;2023-06-24T01:58:43;13.23;;;11.48;;
69369;SDS011;56530;42.640;23.372;2023-06-24T02:01:08;12.80;;;11.10;;
69369;SDS011;56530;42.640;23.372;2023-06-24T02:03:34;12.57;;;11.25;;
69369;SDS011;56530;42.640;23.372;2023-06-24T02:05:59;12.43;;;11.23;;
69369;SDS011;56530;42.640;23.372;2023-06-24T02:08:29;12.60;;;11.33;;
69369;SDS011;56530;42.640;23.372;2023-06-24T02:10:58;12.38;;;10.93;;
69369;SDS011;56530;42.640;23.372;2023-06-24T02:13:23;11.63;;;10.43;;
69369;SDS011;56530;42.640;23.372;2023-06-24T02:15:49;11.90;;;10.70;;
69369;SDS011;56530;42.640;23.372;2023-06-24T02:18:16;11.38;;;10.27;;
69369;SDS011;56530;42.640;23.372;2023-06-24T02:20:43;12.10;;;11.00;;
69369;SDS011;56530;42.640;23.372;2023-06-24T02:23:09;14.40;;;10.23;;
69369;SDS011;56530;42.640;23.372;2023-06-24T02:25:34;11.33;;;10.27;;
69369;SDS011;56530;42.640;23.372;2023-06-24T02:28:03;12.15;;;10.95;;
69369;SDS011;56530;42.640;23.372;2023-06-24T02:30:29;12.27;;;11.13;;
69369;SDS011;56530;42.640;23.372;2023-06-24T02:32:55;13.57;;;10.88;;
69369;SDS011;56530;42.640;23.372;2023-06-24T02:35:21;12.68;;;11.48;;
69369;SDS011;56530;42.640;23.372;2023-06-24T02:37:47;12.70;;;11.40;;
69369;SDS011;56530;42.640;23.372;2023-06-24T02:40:12;12.47;;;11.23;;
69369;SDS011;56530;42.640;23.372;2023-06-24T02:42:38;13.53;;;12.07;;
69369;SDS011;56530;42.640;23.372;2023-06-24T02:45:03;13.70;;;12.40;;
69369;SDS011;56530;42.640;23.372;2023-06-24T02:47:30;15.40;;;12.47;;
69369;SDS011;56530;42.640;23.372;2023-06-24T02:49:56;13.88;;;11.48;;
69369;SDS011;56530;42.640;23.372;2023-06-24T02:52:22;13.70;;;12.38;;
69369;SDS011;56530;42.640;23.372;2023-06-24T02:54:48;13.77;;;12.27;;
69369;SDS011;56530;42.640;23.372;2023-06-24T02:57:14;17.73;;;13.00;;
69369;SDS011;56530;42.640;23.372;2023-06-24T02:59:40;13.53;;;12.20;;
69369;SDS011;56530;42.640;23.372;2023-06-24T03:02:06;17.30;;;12.83;;
69369;SDS011;56530;42.640;23.372;2023-06-24T03:04:31;13.68;;;12.30;;
69369;SDS011;56530;42.640;23.372;2023-06-24T03:06:57;15.00;;;12.55;;
69369;SDS011;56530;42.640;23.372;2023-06-24T03:09:24;13.48;;;12.18;;
69369;SDS011;56530;42.640;23.372;2023-06-24T03:11:49;14.27;;;12.77;;
69369;SDS011;56530;42.640;23.372;2023-06-24T03:14:15;14.47;;;12.23;;
69369;SDS011;56530;42.640;23.372;2023-06-24T03:16:40;13.73;;;12.43;;
69369;SDS011;56530;42.640;23.372;2023-06-24T03:19:06;13.35;;;12.02;;
69369;SDS011;56530;42.640;23.372;2023-06-24T03:21:32;13.07;;;11.73;;
69369;SDS011;56530;42.640;23.372;2023-06-24T03:23:57;14.83;;;11.47;;
69369;SDS011;56530;42.640;23.372;2023-06-24T03:26:24;13.80;;;11.85;;
69369;SDS011;56530;42.640;23.372;2023-06-24T03:28:56;15.80;;;13.00;;
69369;SDS011;56530;42.640;23.372;2023-06-24T03:31:22;19.57;;;12.10;;
69369;SDS011;56530;42.640;23.372;2023-06-24T03:33:48;12.83;;;11.53;;
69369;SDS011;56530;42.640;23.372;2023-06-24T03:36:13;14.60;;;13.10;;
69369;SDS011;56530;42.640;23.372;2023-06-24T03:38:39;15.33;;;13.27;;
69369;SDS011;56530;42.640;23.372;2023-06-24T03:41:05;14.02;;;12.38;;
69369;SDS011;56530;42.640;23.372;2023-06-24T03:43:31;13.97;;;12.57;;
69369;SDS011;56530;42.640;23.372;2023-06-24T03:45:56;12.67;;;11.47;;
69369;SDS011;56530;42.640;23.372;2023-06-24T03:48:22;14.07;;;12.63;;
69369;SDS011;56530;42.640;23.372;2023-06-24T03:50:47;13.63;;;12.23;;
69369;SDS011;56530;42.640;23.372;2023-06-24T03:53:12;14.77;;;13.10;;
69369;SDS011;56530;42.640;23.372;2023-06-24T03:55:38;12.45;;;11.25;;
69369;SDS011;56530;42.640;23.372;2023-06-24T03:58:03;11.90;;;10.40;;
69369;SDS011;56530;42.640;23.372;2023-06-24T04:00:29;12.60;;;11.30;;
69369;SDS011;56530;42.640;23.372;2023-06-24T04:02:54;12.03;;;10.73;;
69369;SDS011;56530;42.640;23.372;2023-06-24T04:05:20;15.60;;;11.07;;
69369;SDS011;56530;42.640;23.372;2023-06-24T04:07:46;12.70;;;11.40;;
69369;SDS011;56530;42.640;23.372;2023-06-24T04:10:12;13.37;;;10.50;;
69369;SDS011;56530;42.640;23.372;2023-06-24T04:12:38;12.60;;;10.57;;
69369;SDS011;56530;42.640;23.372;2023-06-24T04:15:03;14.53;;;10.40;;
69369;SDS011;56530;42.640;23.372;2023-06-24T04:17:30;12.27;;;11.02;;
69369;SDS011;56530;42.640;23.372;2023-06-24T04:19:56;12.27;;;11.17;;
69369;SDS011;56530;42.640;23.372;2023-06-24T04:22:21;13.07;;;10.23;;
69369;SDS011;56530;42.640;23.372;2023-06-24T04:24:47;13.20;;;11.02;;
69369;SDS011;56530;42.640;23.372;2023-06-24T04:27:13;11.57;;;10.43;;
69369;SDS011;56530;42.640;23.372;2023-06-24T04:29:38;11.70;;;10.33;;
69369;SDS011;56530;42.640;23.372;2023-06-24T04:32:04;11.82;;;9.40;;
69369;SDS011;56530;42.640;23.372;2023-06-24T04:34:29;12.63;;;11.20;;
69369;SDS011;56530;42.640;23.372;2023-06-24T04:36:55;15.07;;;11.37;;
69369;SDS011;56530;42.640;23.372;2023-06-24T04:39:20;14.43;;;10.67;;
69369;SDS011;56530;42.640;23.372;2023-06-24T04:41:46;12.00;;;10.77;;
69369;SDS011;56530;42.640;23.372;2023-06-24T04:44:12;12.35;;;10.25;;
69369;SDS011;56530;42.640;23.372;2023-06-24T04:46:37;14.63;;;10.45;;
69369;SDS011;56530;42.640;23.372;2023-06-24T04:49:05;11.93;;;10.65;;
69369;SDS011;56530;42.640;23.372;2023-06-24T04:51:30;12.23;;;10.70;;
69369;SDS011;56530;42.640;23.372;2023-06-24T04:53:56;15.40;;;11.63;;
69369;SDS011;56530;42.640;23.372;2023-06-24T04:56:21;12.37;;;10.90;;
69369;SDS011;56530;42.640;23.372;2023-06-24T04:58:46;11.77;;;10.70;;
69369;SDS011;56530;42.640;23.372;2023-06-24T05:01:12;12.18;;;10.80;;
69369;SDS011;56530;42.640;23.372;2023-06-24T05:03:37;12.20;;;10.50;;
69369;SDS011;56530;42.640;23.372;2023-06-24T05:06:03;11.13;;;10.00;;
69369;SDS011;56530;42.640;23.372;2023-06-24T05:08:28;12.10;;;9.70;;
69369;SDS011;56530;42.640;23.372;2023-06-24T05:10:53;10.90;;;10.00;;
69369;SDS011;56530;42.640;23.372;2023-06-24T05:13:19;11.55;;;10.32;;
69369;SDS011;56530;42.640;23.372;2023-06-24T05:15:44;14.10;;;10.20;;
69369;SDS011;56530;42.640;23.372;2023-06-24T05:18:10;12.07;;;10.40;;
69369;SDS011;56530;42.640;23.372;2023-06-24T05:20:35;11.20;;;9.33;;
69369;SDS011;56530;42.640;23.372;2023-06-24T05:23:00;11.53;;;10.43;;
69369;SDS011;56530;42.640;23.372;2023-06-24T05:25:26;13.57;;;11.27;;
69369;SDS011;56530;42.640;23.372;2023-06-24T05:27:51;14.50;;;10.88;;
69369;SDS011;56530;42.640;23.372;2023-06-24T05:30:17;11.90;;;10.50;;
69369;SDS011;56530;42.640;23.372;2023-06-24T05:32:42;18.27;;;11.90;;
69369;SDS011;56530;42.640;23.372;2023-06-24T05:35:07;17.30;;;11.57;;
69369;SDS011;56530;42.640;23.372;2023-06-24T05:37:33;13.63;;;12.23;;
69369;SDS011;56530;42.640;23.372;2023-06-24T05:39:59;17.48;;;12.48;;
69369;SDS011;56530;42.640;23.372;2023-06-24T05:42:26;18.27;;;12.02;;
69369;SDS011;56530;42.640;23.372;2023-06-24T05:44:52;16.63;;;12.57;;
69369;SDS011;56530;42.640;23.372;2023-06-24T05:47:17;14.87;;;13.00;;
69369;SDS011;56530;42.640;23.372;2023-06-24T05:49:42;15.55;;;12.82;;
69369;SDS011;56530;42.640;23.372;2023-06-24T05:52:08;17.33;;;12.67;;
69369;SDS011;56530;42.640;23.372;2023-06-24T05:54:33;14.70;;;12.47;;
69369;SDS011;56530;42.640;23.372;2023-06-24T05:56:58;17.87;;;12.87;;
69369;SDS011;56530;42.640;23.372;2023-06-24T05:59:24;17.73;;;13.47;;
69369;SDS011;56530;42.640;23.372;2023-06-24T06:01:50;14.07;;;12.57;;
69369;SDS011;56530;42.640;23.372;2023-06-24T06:04:15;15.70;;;13.10;;
69369;SDS011;56530;42.640;23.372;2023-06-24T06:06:40;18.48;;;13.85;;
69369;SDS011;56530;42.640;23.372;2023-06-24T06:09:06;14.67;;;11.77;;
69369;SDS011;56530;42.640;23.372;2023-06-24T06:11:31;16.37;;;13.70;;
69369;SDS011;56530;42.640;23.372;2023-06-24T06:13:56;15.87;;;13.23;;
69369;SDS011;56530;42.640;23.372;2023-06-24T06:16:22;25.57;;;14.90;;
69369;SDS011;56530;42.640;23.372;2023-06-24T06:18:48;17.50;;;14.70;;
69369;SDS011;56530;42.640;23.372;2023-06-24T06:21:14;20.97;;;14.40;;
69369;SDS011;56530;42.640;23.372;2023-06-24T06:23:39;16.07;;;13.90;;
69369;SDS011;56530;42.640;23.372;2023-06-24T06:26:04;15.90;;;14.20;;
69369;SDS011;56530;42.640;23.372;2023-06-24T06:28:30;19.90;;;13.80;;
69369;SDS011;56530;42.640;23.372;2023-06-24T06:30:55;19.43;;;15.57;;
69369;SDS011;56530;42.640;23.372;2023-06-24T06:33:22;16.17;;;12.87;;
69369;SDS011;56530;42.640;23.372;2023-06-24T06:35:47;17.00;;;14.40;;
69369;SDS011;56530;42.640;23.372;2023-06-24T06:38:13;14.70;;;13.03;;
69369;SDS011;56530;42.640;23.372;2023-06-24T06:40:38;16.30;;;13.13;;
69369;SDS011;56530;42.640;23.372;2023-06-24T06:43:03;15.93;;;12.82;;
69369;SDS011;56530;42.640;23.372;2023-06-24T06:45:29;15.90;;;12.53;;
69369;SDS011;56530;42.640;23.372;2023-06-24T06:47:54;14.23;;;12.77;;
69369;SDS011;56530;42.640;23.372;2023-06-24T06:50:20;13.97;;;12.57;;
69369;SDS011;56530;42.640;23.372;2023-06-24T06:52:45;13.43;;;11.88;;
69369;SDS011;56530;42.640;23.372;2023-06-24T06:55:10;13.87;;;12.13;;
69369;SDS011;56530;42.640;23.372;2023-06-24T06:57:36;12.73;;;11.50;;
69369;SDS011;56530;42.640;23.372;2023-06-24T07:00:01;12.83;;;11.53;;
69369;SDS011;56530;42.640;23.372;2023-06-24T07:02:27;12.25;;;11.02;;
69369;SDS011;56530;42.640;23.372;2023-06-24T07:04:53;11.63;;;10.53;;
69369;SDS011;56530;42.640;23.372;2023-06-24T07:07:18;15.27;;;10.93;;
69369;SDS011;56530;42.640;23.372;2023-06-24T07:09:43;13.27;;;10.63;;
69369;SDS011;56530;42.640;23.372;2023-06-24T07:12:11;12.90;;;11.57;;
69369;SDS011;56530;42.640;23.372;2023-06-24T07:14:38;12.50;;;10.63;;
69369;SDS011;56530;42.640;23.372;2023-06-24T07:17:03;16.07;;;10.27;;
69369;SDS011;56530;42.640;23.372;2023-06-24T07:19:31;11.65;;;10.55;;
69369;SDS011;56530;42.640;23.372;2023-06-24T07:21:57;12.57;;;11.23;;
69369;SDS011;56530;42.640;23.372;2023-06-24T07:24:22;11.27;;;10.27;;
69369;SDS011;56530;42.640;23.372;2023-06-24T07:26:47;12.47;;;11.20;;
69369;SDS011;56530;42.640;23.372;2023-06-24T07:29:13;14.10;;;12.70;;
69369;SDS011;56530;42.640;23.372;2023-06-24T07:31:38;14.45;;;11.93;;
69369;SDS011;56530;42.640;23.372;2023-06-24T07:34:04;13.53;;;11.27;;
69369;SDS011;56530;42.640;23.372;2023-06-24T07:36:29;13.93;;;12.20;;
69369;SDS011;56530;42.640;23.372;2023-06-24T07:38:55;17.73;;;10.83;;
69369;SDS011;56530;42.640;23.372;2023-06-24T07:41:20;12.30;;;11.17;;
69369;SDS011;56530;42.640;23.372;2023-06-24T07:43:45;13.15;;;11.90;;
69369;SDS011;56530;42.640;23.372;2023-06-24T07:46:11;13.40;;;12.20;;
69369;SDS011;56530;42.640;23.372;2023-06-24T07:48:36;13.50;;;11.50;;
69369;SDS011;56530;42.640;23.372;2023-06-24T07:51:02;12.30;;;10.47;;
69369;SDS011;56530;42.640;23.372;2023-06-24T07:53:27;12.45;;;11.23;;
69369;SDS011;56530;42.640;23.372;2023-06-24T07:55:53;11.40;;;10.40;;
69369;SDS011;56530;42.640;23.372;2023-06-24T07:58:18;12.83;;;11.60;;
69369;SDS011;56530;42.640;23.372;2023-06-24T08:00:44;13.00;;;11.45;;
69369;SDS011;56530;42.640;23.372;2023-06-24T08:03:10;13.07;;;11.20;;
69369;SDS011;56530;42.640;23.372;2023-06-24T08:05:36;12.13;;;10.88;;
69369;SDS011;56530;42.640;23.372;2023-06-24T08:08:03;16.43;;;11.83;;
69369;SDS011;56530;42.640;23.372;2023-06-24T08:10:29;12.85;;;11.32;;
69369;SDS011;56530;42.640;23.372;2023-06-24T08:12:55;13.40;;;11.87;;
69369;SDS011;56530;42.640;23.372;2023-06-24T08:15:20;13.17;;;12.03;;
69369;SDS011;56530;42.640;23.372;2023-06-24T08:17:50;13.13;;;11.77;;
69369;SDS011;56530;42.640;23.372;2023-06-24T08:20:22;54.38;;;18.55;;
69369;SDS011;56530;42.640;23.372;2023-06-24T08:22:48;19.90;;;12.73;;
69369;SDS011;56530;42.640;23.372;2023-06-24T08:25:13;12.38;;;11.18;;
69369;SDS011;56530;42.640;23.372;2023-06-24T08:27:39;12.20;;;11.05;;
69369;SDS011;56530;42.640;23.372;2023-06-24T08:30:05;12.83;;;11.50;;
69369;SDS011;56530;42.640;23.372;2023-06-24T08:32:31;12.43;;;11.15;;
69369;SDS011;56530;42.640;23.372;2023-06-24T08:34:56;12.53;;;11.27;;
69369;SDS011;56530;42.640;23.372;2023-06-24T08:37:22;13.45;;;10.82;;
69369;SDS011;56530;42.640;23.372;2023-06-24T08:39:47;12.37;;;11.13;;
69369;SDS011;56530;42.640;23.372;2023-06-24T08:42:12;12.17;;;11.17;;
69369;SDS011;56530;42.640;23.372;2023-06-24T08:44:38;14.63;;;12.05;;
69369;SDS011;56530;42.640;23.372;2023-06-24T08:47:03;12.60;;;11.45;;
69369;SDS011;56530;42.640;23.372;2023-06-24T08:49:29;12.80;;;11.50;;
69369;SDS011;56530;42.640;23.372;2023-06-24T08:52:08;12.63;;;11.43;;
69369;SDS011;56530;42.640;23.372;2023-06-24T08:54:35;12.55;;;11.43;;
69369;SDS011;56530;42.640;23.372;2023-06-24T08:57:02;12.43;;;11.43;;
69369;SDS011;56530;42.640;23.372;2023-06-24T08:59:30;12.05;;;10.98;;
69369;SDS011;56530;42.640;23.372;2023-06-24T09:01:56;11.80;;;10.60;;
69369;SDS011;56530;42.640;23.372;2023-06-24T09:04:22;13.90;;;11.17;;
69369;SDS011;56530;42.640;23.372;2023-06-24T09:06:48;11.80;;;10.73;;
69369;SDS011;56530;42.640;23.372;2023-06-24T09:09:20;13.73;;;11.38;;
69369;SDS011;56530;42.640;23.372;2023-06-24T09:11:57;13.35;;;10.45;;
69369;SDS011;56530;42.640;23.372;2023-06-24T09:14:27;12.00;;;10.73;;
69369;SDS011;56530;42.640;23.372;2023-06-24T09:16:58;11.95;;;10.85;;
69369;SDS011;56530;42.640;23.372;2023-06-24T09:19:26;12.45;;;11.07;;
69369;SDS011;56530;42.640;23.372;2023-06-24T09:22:02;12.63;;;11.00;;
69369;SDS011;56530;42.640;23.372;2023-06-24T09:24:30;12.98;;;10.85;;
69369;SDS011;56530;42.640;23.372;2023-06-24T09:26:56;14.65;;;11.13;;
69369;SDS011;56530;42.640;23.372;2023-06-24T09:29:28;12.43;;;11.13;;
69369;SDS011;56530;42.640;23.372;2023-06-24T09:31:56;11.38;;;10.25;;
69369;SDS011;56530;42.640;23.372;2023-06-24T09:34:23;11.82;;;10.75;;
69369;SDS011;56530;42.640;23.372;2023-06-24T09:37:07;11.70;;;10.57;;
69369;SDS011;56530;42.640;23.372;2023-06-24T09:39:35;11.70;;;10.43;;
69369;SDS011;56530;42.640;23.372;2023-06-24T09:42:01;13.13;;;11.83;;
69369;SDS011;56530;42.640;23.372;2023-06-24T09:44:27;11.77;;;10.67;;
69369;SDS011;56530;42.640;23.372;2023-06-24T09:46:54;11.70;;;10.70;;
69369;SDS011;56530;42.640;23.372;2023-06-24T09:49:21;11.98;;;10.80;;
69369;SDS011;56530;42.640;23.372;2023-06-24T09:51:47;12.23;;;10.55;;
69369;SDS011;56530;42.640;23.372;2023-06-24T09:54:15;11.85;;;10.75;;
69369;SDS011;56530;42.640;23.372;2023-06-24T09:56:45;11.40;;;10.13;;
69369;SDS011;56530;42.640;23.372;2023-06-24T09:59:14;10.65;;;9.75;;
69369;SDS011;56530;42.640;23.372;2023-06-24T10:01:41;11.15;;;10.15;;
69369;SDS011;56530;42.640;23.372;2023-06-24T10:04:06;11.63;;;10.43;;
69369;SDS011;56530;42.640;23.372;2023-06-24T10:06:33;12.55;;;10.23;;
69369;SDS011;56530;42.640;23.372;2023-06-24T10:08:59;11.60;;;10.43;;
69369;SDS011;56530;42.640;23.372;2023-06-24T10:11:25;13.23;;;10.57;;
69369;SDS011;56530;42.640;23.372;2023-06-24T10:13:51;12.83;;;10.80;;
69369;SDS011;56530;42.640;23.372;2023-06-24T10:16:17;10.90;;;9.90;;
69369;SDS011;56530;42.640;23.372;2023-06-24T10:18:43;15.35;;;10.13;;
69369;SDS011;56530;42.640;23.372;2023-06-24T10:21:09;10.40;;;9.40;;
69369;SDS011;56530;42.640;23.372;2023-06-24T10:23:42;10.50;;;9.60;;
69369;SDS011;56530;42.640;23.372;2023-06-24T10:26:27;15.85;;;10.25;;
69369;SDS011;56530;42.640;23.372;2023-06-24T10:34:27;10.63;;;9.38;;
69369;SDS011;56530;42.640;23.372;2023-06-24T10:37:00;10.57;;;9.47;;
69369;SDS011;56530;42.640;23.372;2023-06-24T10:47:35;10.93;;;9.40;;
69369;SDS011;56530;42.640;23.372;2023-06-24T10:50:02;9.95;;;8.98;;
69369;SDS011;56530;42.640;23.372;2023-06-24T10:52:28;10.25;;;9.25;;
69369;SDS011;56530;42.640;23.372;2023-06-24T10:54:55;10.68;;;8.93;;
69369;SDS011;56530;42.640;23.372;2023-06-24T10:57:26;13.48;;;9.10;;
69369;SDS011;56530;42.640;23.372;2023-06-24T10:59:52;10.40;;;9.15;;
69369;SDS011;56530;42.640;23.372;2023-06-24T11:02:19;11.30;;;8.90;;
69369;SDS011;56530;42.640;23.372;2023-06-24T11:04:52;11.13;;;8.55;;
69369;SDS011;56530;42.640;23.372;2023-06-24T11:07:20;9.65;;;8.75;;
69369;SDS011;56530;42.640;23.372;2023-06-24T11:09:57;14.75;;;8.82;;
69369;SDS011;56530;42.640;23.372;2023-06-24T11:12:35;9.98;;;9.00;;
69369;SDS011;56530;42.640;23.372;2023-06-24T11:17:32;11.77;;;7.60;;
69369;SDS011;56530;42.640;23.372;2023-06-24T11:19:58;8.27;;;7.57;;
69369;SDS011;56530;42.640;23.372;2023-06-24T11:22:24;9.20;;;8.00;;
69369;SDS011;56530;42.640;23.372;2023-06-24T11:24:50;8.83;;;7.97;;
69369;SDS011;56530;42.640;23.372;2023-06-24T11:27:15;9.13;;;8.27;;
69369;SDS011;56530;42.640;23.372;2023-06-24T11:29:41;8.60;;;7.77;;
69369;SDS011;56530;42.640;23.372;2023-06-24T11:32:07;9.87;;;8.10;;
69369;SDS011;56530;42.640;23.372;2023-06-24T11:34:33;8.73;;;7.88;;
69369;SDS011;56530;42.640;23.372;2023-06-24T11:37:08;9.33;;;8.43;;
69369;SDS011;56530;42.640;23.372;2023-06-24T11:39:37;8.52;;;7.80;;
69369;SDS011;56530;42.640;23.372;2023-06-24T11:42:02;8.43;;;7.70;;
69369;SDS011;56530;42.640;23.372;2023-06-24T11:44:28;9.27;;;8.38;;
69369;SDS011;56530;42.640;23.372;2023-06-24T11:47:03;8.77;;;7.67;;
69369;SDS011;56530;42.640;23.372;2023-06-24T11:49:29;10.20;;;8.65;;
69369;SDS011;56530;42.640;23.372;2023-06-24T11:51:55;9.80;;;8.80;;
69369;SDS011;56530;42.640;23.372;2023-06-24T11:54:21;8.47;;;7.53;;
69369;SDS011;56530;42.640;23.372;2023-06-24T11:56:50;10.13;;;8.90;;
69369;SDS011;56530;42.640;23.372;2023-06-24T11:59:23;11.18;;;8.60;;
69369;SDS011;56530;42.640;23.372;2023-06-24T12:02:01;8.60;;;7.78;;
69369;SDS011;56530;42.640;23.372;2023-06-24T12:04:31;8.55;;;7.70;;
69369;SDS011;56530;42.640;23.372;2023-06-24T12:06:59;10.07;;;8.93;;
69369;SDS011;56530;42.640;23.372;2023-06-24T12:09:25;8.88;;;8.07;;
69369;SDS011;56530;42.640;23.372;2023-06-24T12:11:51;9.90;;;9.00;;
69369;SDS011;56530;42.640;23.372;2023-06-24T12:14:17;9.75;;;8.75;;
69369;SDS011;56530;42.640;23.372;2023-06-24T12:16:43;8.83;;;7.97;;
69369;SDS011;56530;42.640;23.372;2023-06-24T12:19:08;8.77;;;7.90;;
69369;SDS011;56530;42.640;23.372;2023-06-24T12:21:34;9.45;;;8.50;;
69369;SDS011;56530;42.640;23.372;2023-06-24T12:24:00;9.20;;;8.30;;
69369;SDS011;56530;42.640;23.372;2023-06-24T12:26:26;8.32;;;7.57;;
69369;SDS011;56530;42.640;23.372;2023-06-24T12:28:54;9.70;;;8.70;;
69369;SDS011;56530;42.640;23.372;2023-06-24T12:31:21;12.45;;;8.50;;
69369;SDS011;56530;42.640;23.372;2023-06-24T12:33:47;14.77;;;9.82;;
69369;SDS011;56530;42.640;23.372;2023-06-24T12:36:12;8.95;;;8.10;;
69369;SDS011;56530;42.640;23.372;2023-06-24T12:38:38;8.93;;;8.00;;
69369;SDS011;56530;42.640;23.372;2023-06-24T12:41:03;10.00;;;8.07;;
69369;SDS011;56530;42.640;23.372;2023-06-24T12:43:29;9.13;;;7.93;;
69369;SDS011;56530;42.640;23.372;2023-06-24T12:45:54;9.90;;;8.93;;
69369;SDS011;56530;42.640;23.372;2023-06-24T12:48:20;10.27;;;8.90;;
69369;SDS011;56530;42.640;23.372;2023-06-24T12:50:46;9.77;;;7.87;;
69369;SDS011;56530;42.640;23.372;2023-06-24T12:53:12;9.75;;;8.07;;
69369;SDS011;56530;42.640;23.372;2023-06-24T12:55:39;9.07;;;8.10;;
69369;SDS011;56530;42.640;23.372;2023-06-24T12:58:05;10.13;;;7.53;;
69369;SDS011;56530;42.640;23.372;2023-06-24T13:00:31;8.50;;;7.40;;
69369;SDS011;56530;42.640;23.372;2023-06-24T13:02:56;8.63;;;7.47;;
69369;SDS011;56530;42.640;23.372;2023-06-24T13:05:21;15.07;;;7.90;;
69369;SDS011;56530;42.640;23.372;2023-06-24T13:07:47;8.80;;;7.50;;
69369;SDS011;56530;42.640;23.372;2023-06-24T13:10:12;8.38;;;7.68;;
69369;SDS011;56530;42.640;23.372;2023-06-24T13:12:38;8.07;;;7.27;;
69369;SDS011;56530;42.640;23.372;2023-06-24T13:15:04;8.30;;;7.50;;
69369;SDS011;56530;42.640;23.372;2023-06-24T13:17:30;7.95;;;6.63;;
69369;SDS011;56530;42.640;23.372;2023-06-24T13:19:56;8.70;;;7.63;;
69369;SDS011;56530;42.640;23.372;2023-06-24T13:22:22;8.35;;;7.55;;
69369;SDS011;56530;42.640;23.372;2023-06-24T13:24:48;8.20;;;7.50;;
69369;SDS011;56530;42.640;23.372;2023-06-24T13:27:13;9.37;;;7.80;;
69369;SDS011;56530;42.640;23.372;2023-06-24T13:29:39;8.33;;;6.93;;
69369;SDS011;56530;42.640;23.372;2023-06-24T13:32:04;7.82;;;7.20;;
69369;SDS011;56530;42.640;23.372;2023-06-24T13:34:30;9.82;;;7.30;;
69369;SDS011;56530;42.640;23.372;2023-06-24T13:36:56;8.45;;;7.65;;
69369;SDS011;56530;42.640;23.372;2023-06-24T13:39:21;10.43;;;7.60;;
69369;SDS011;56530;42.640;23.372;2023-06-24T13:41:49;13.55;;;8.73;;
69369;SDS011;56530;42.640;23.372;2023-06-24T13:44:15;16.42;;;9.35;;
69369;SDS011;56530;42.640;23.372;2023-06-24T13:46:41;16.93;;;8.73;;
69369;SDS011;56530;42.640;23.372;2023-06-24T13:49:06;19.07;;;8.90;;
69369;SDS011;56530;42.640;23.372;2023-06-24T13:51:32;12.80;;;7.87;;
69369;SDS011;56530;42.640;23.372;2023-06-24T13:53:57;15.95;;;7.55;;
69369;SDS011;56530;42.640;23.372;2023-06-24T13:56:24;16.65;;;7.35;;
69369;SDS011;56530;42.640;23.372;2023-06-24T13:58:50;14.07;;;7.20;;
69369;SDS011;56530;42.640;23.372;2023-06-24T14:01:16;14.55;;;7.45;;
69369;SDS011;56530;42.640;23.372;2023-06-24T14:03:41;22.60;;;7.93;;
69369;SDS011;56530;42.640;23.372;2023-06-24T14:06:07;12.80;;;7.80;;
69369;SDS011;56530;42.640;23.372;2023-06-24T14:08:33;12.57;;;7.93;;
69369;SDS011;56530;42.640;23.372;2023-06-24T14:10:59;20.45;;;7.65;;
69369;SDS011;56530;42.640;23.372;2023-06-24T14:13:25;19.93;;;8.13;;
69369;SDS011;56530;42.640;23.372;2023-06-24T14:15:52;10.93;;;6.85;;
69369;SDS011;56530;42.640;23.372;2023-06-24T14:18:17;10.48;;;6.70;;
69369;SDS011;56530;42.640;23.372;2023-06-24T14:20:44;10.20;;;6.50;;
69369;SDS011;56530;42.640;23.372;2023-06-24T14:23:10;12.02;;;6.60;;
69369;SDS011;56530;42.640;23.372;2023-06-24T14:25:36;11.05;;;7.10;;
69369;SDS011;56530;42.640;23.372;2023-06-24T14:28:03;11.30;;;7.28;;
69369;SDS011;56530;42.640;23.372;2023-06-24T14:30:31;14.68;;;6.05;;
69369;SDS011;56530;42.640;23.372;2023-06-24T14:32:57;10.93;;;6.50;;
69369;SDS011;56530;42.640;23.372;2023-06-24T14:35:22;15.23;;;6.40;;
69369;SDS011;56530;42.640;23.372;2023-06-24T14:37:48;10.83;;;6.17;;